Time;durP1;ratioP1;P1;durP2;ratioP2;P2;SDS_P1;SDS_P2;PMS_P1;PMS_P2;Temp;Humidity;BMP_temperature;BMP_pressure;BME280_temperature;BME280_humidity;BME280_pressure;Samples;Min_cycle;Max_cycle;Signal;HPM_P1;HPM_P2
2021/09/06 00:00:01;;;;;;;10.23;7.90;;;;;;;25.02;35.36;101795.97;5020552;28;20489;-83
2021/09/06 00:02:27;;;;;;;11.88;7.95;;;;;;;24.98;35.47;101795.41;5007859;28;20057;-83
2021/09/06 00:04:54;;;;;;;11.63;8.50;;;;;;;24.94;35.51;101788.50;5009458;28;20455;-83
2021/09/06 00:07:20;;;;;;;12.48;8.57;;;;;;;24.93;35.18;101791.44;5004550;28;20337;-83
2021/09/06 00:09:52;;;;;;;13.40;8.52;;;;;;;24.93;35.34;101792.31;4996962;28;20081;-83
2021/09/06 00:12:19;;;;;;;10.93;8.27;;;;;;;24.87;35.71;101792.09;5004635;28;20049;-82
2021/09/06 00:14:46;;;;;;;11.48;7.95;;;;;;;24.86;35.60;101793.13;5009990;28;20108;-82
2021/09/06 00:17:12;;;;;;;12.15;8.18;;;;;;;24.84;35.71;101787.75;5013976;28;20497;-82
2021/09/06 00:19:39;;;;;;;11.82;8.48;;;;;;;24.82;35.48;101794.50;5008737;28;20406;-82
2021/09/06 00:22:06;;;;;;;12.18;8.43;;;;;;;24.78;35.55;101796.78;5014441;28;20045;-82
2021/09/06 00:24:35;;;;;;;11.93;8.25;;;;;;;24.76;35.76;101792.44;5008917;28;20085;-82
2021/09/06 00:27:01;;;;;;;11.98;8.23;;;;;;;24.74;35.56;101797.28;5016002;28;20053;-82
2021/09/06 00:29:28;;;;;;;10.90;8.50;;;;;;;24.71;35.87;101790.16;5007096;28;20042;-82
2021/09/06 00:31:55;;;;;;;11.27;8.27;;;;;;;24.70;35.87;101793.13;5009482;28;20485;-83
2021/09/06 00:34:22;;;;;;;11.68;8.40;;;;;;;24.68;35.68;101803.53;5007967;28;20516;-83
2021/09/06 00:36:48;;;;;;;11.75;8.00;;;;;;;24.65;35.61;101796.41;5012885;28;20077;-82
2021/09/06 00:39:15;;;;;;;13.25;8.82;;;;;;;24.63;35.90;101792.91;5014940;28;20078;-82
2021/09/06 00:41:43;;;;;;;12.70;9.30;;;;;;;24.59;36.28;101788.75;5022890;28;20053;-82
2021/09/06 00:44:09;;;;;;;13.13;9.35;;;;;;;24.56;36.13;101789.09;5013014;28;20119;-82
2021/09/06 00:46:36;;;;;;;13.18;8.48;;;;;;;24.50;35.88;101790.66;5008304;28;20424;-82
2021/09/06 00:49:03;;;;;;;13.20;8.85;;;;;;;24.47;36.30;101792.88;5015244;28;20169;-82
2021/09/06 00:51:29;;;;;;;12.80;8.73;;;;;;;24.42;36.22;101793.41;5008321;28;20046;-82
2021/09/06 00:53:56;;;;;;;12.38;8.65;;;;;;;24.40;36.33;101789.94;5006520;28;20551;-82
2021/09/06 00:56:23;;;;;;;12.93;8.52;;;;;;;24.37;36.55;101795.84;5008792;28;20109;-82
2021/09/06 00:58:51;;;;;;;12.32;8.65;;;;;;;24.36;36.20;101796.88;5010052;28;20137;-82
2021/09/06 01:01:17;;;;;;;13.77;9.32;;;;;;;24.32;36.41;101798.25;5017907;28;20134;-82
2021/09/06 01:03:44;;;;;;;12.93;8.50;;;;;;;24.30;36.43;101791.97;5033296;28;20068;-82
2021/09/06 01:06:11;;;;;;;11.73;8.32;;;;;;;24.28;36.46;101788.53;5023657;28;20559;-82
2021/09/06 01:08:38;;;;;;;13.95;9.18;;;;;;;24.25;36.30;101786.09;5008795;28;20053;-82
2021/09/06 01:11:04;;;;;;;13.20;9.70;;;;;;;24.23;36.38;101786.25;5022391;28;20532;-82
2021/09/06 01:13:31;;;;;;;12.35;8.27;;;;;;;24.20;36.85;101785.69;5012269;28;20112;-82
2021/09/06 01:15:58;;;;;;;13.43;9.27;;;;;;;24.15;36.71;101786.19;5023773;28;20054;-82
2021/09/06 01:18:25;;;;;;;13.50;9.07;;;;;;;24.10;36.57;101790.50;5007061;28;20057;-82
2021/09/06 01:20:51;;;;;;;12.73;8.90;;;;;;;24.02;37.02;101794.13;5028549;28;20486;-82
2021/09/06 01:23:18;;;;;;;10.77;8.05;;;;;;;23.98;37.08;101789.94;5020025;28;20441;-82
2021/09/06 01:25:49;;;;;;;12.82;8.80;;;;;;;23.97;37.47;101795.63;5011371;28;20046;-82
2021/09/06 01:28:16;;;;;;;10.88;8.40;;;;;;;23.89;37.50;101800.13;5008499;28;20200;-82
2021/09/06 01:30:43;;;;;;;11.23;8.45;;;;;;;23.85;37.02;101790.41;5008802;28;20104;-82
2021/09/06 01:33:09;;;;;;;11.90;8.32;;;;;;;23.84;36.89;101796.13;5011147;28;20398;-82
2021/09/06 01:35:36;;;;;;;13.00;8.95;;;;;;;23.81;37.34;101791.75;5011733;28;20081;-82
2021/09/06 01:38:03;;;;;;;12.57;8.80;;;;;;;23.79;37.09;101781.91;5018135;28;20100;-82
2021/09/06 01:40:30;;;;;;;11.32;8.25;;;;;;;23.76;37.48;101796.94;5010071;28;20070;-82
2021/09/06 01:42:56;;;;;;;13.02;8.05;;;;;;;23.74;37.56;101795.38;5017826;28;20049;-82
2021/09/06 01:45:23;;;;;;;12.15;8.15;;;;;;;23.72;37.55;101795.53;5011933;28;20057;-82
2021/09/06 01:47:50;;;;;;;10.40;7.68;;;;;;;23.72;37.18;101795.53;5007849;28;20373;-81
2021/09/06 01:50:16;;;;;;;12.60;8.05;;;;;;;23.71;37.50;101795.72;5008345;28;20413;-82
2021/09/06 01:52:43;;;;;;;11.05;7.95;;;;;;;23.73;37.23;101799.16;5008398;28;20512;-82
2021/09/06 01:55:09;;;;;;;11.60;8.18;;;;;;;23.72;37.26;101801.06;5010523;28;20059;-82
2021/09/06 01:57:36;;;;;;;11.57;8.07;;;;;;;23.73;37.55;101796.41;5017448;28;20128;-82
2021/09/06 02:00:04;;;;;;;12.77;8.07;;;;;;;23.74;37.42;101804.56;5040635;28;20126;-82
2021/09/06 02:02:31;;;;;;;11.02;8.05;;;;;;;23.74;37.21;101800.91;5010766;28;20050;-82
2021/09/06 02:04:58;;;;;;;11.02;7.70;;;;;;;23.73;37.12;101799.16;5018700;28;20058;-82
2021/09/06 02:07:24;;;;;;;11.95;8.02;;;;;;;23.73;37.31;101804.72;5010709;28;20480;-82
2021/09/06 02:09:51;;;;;;;12.63;8.02;;;;;;;23.73;37.61;101810.25;5010274;28;20054;-82
2021/09/06 02:12:17;;;;;;;12.02;8.30;;;;;;;23.73;37.11;101815.81;5011081;28;20088;-82
2021/09/06 02:14:44;;;;;;;11.18;8.00;;;;;;;23.73;36.92;101818.59;5014639;28;20046;-81
2021/09/06 02:17:11;;;;;;;12.27;8.52;;;;;;;23.72;36.84;101819.66;5006680;28;20427;-81
2021/09/06 02:19:37;;;;;;;12.25;8.07;;;;;;;23.70;37.28;101817.03;5013213;28;20128;-82
2021/09/06 02:22:04;;;;;;;12.45;8.63;;;;;;;23.69;37.20;101820.84;5017219;28;20413;-81
2021/09/06 02:24:30;;;;;;;12.27;8.05;;;;;;;23.68;37.20;101818.22;5037517;28;20135;-82
2021/09/06 02:26:57;;;;;;;11.88;8.20;;;;;;;23.67;37.49;101809.03;5015225;28;20155;-82
2021/09/06 02:29:24;;;;;;;12.60;8.27;;;;;;;23.66;37.34;101815.59;5025013;28;20096;-81
2021/09/06 02:31:51;;;;;;;12.18;8.50;;;;;;;23.65;37.32;101815.75;5028157;28;20574;-81
2021/09/06 02:34:17;;;;;;;11.48;7.97;;;;;;;23.65;37.22;101821.31;5012098;28;20050;-81
2021/09/06 02:36:44;;;;;;;10.88;8.00;;;;;;;23.64;37.43;101814.03;5011728;28;20492;-81
2021/09/06 02:39:10;;;;;;;12.35;8.05;;;;;;;23.62;37.52;101811.44;5021425;28;20049;-81
2021/09/06 02:41:37;;;;;;;13.65;7.93;;;;;;;23.61;37.04;101806.06;5018749;28;20132;-81
2021/09/06 02:44:03;;;;;;;11.77;8.15;;;;;;;23.59;37.61;101806.22;5018038;28;20137;-81
2021/09/06 02:46:30;;;;;;;11.73;8.10;;;;;;;23.57;36.81;101805.50;5016351;28;20136;-81
2021/09/06 02:48:57;;;;;;;11.35;8.32;;;;;;;23.55;37.29;101804.81;5012927;28;20153;-81
2021/09/06 02:51:23;;;;;;;11.80;8.40;;;;;;;23.54;37.20;101807.75;5025490;28;20080;-81
2021/09/06 02:53:50;;;;;;;11.20;7.63;;;;;;;23.51;37.54;101807.03;5015040;28;20053;-81
2021/09/06 02:56:16;;;;;;;11.82;8.25;;;;;;;23.49;37.78;101803.53;5019680;28;20089;-81
2021/09/06 02:58:43;;;;;;;12.45;8.77;;;;;;;23.45;37.32;101807.66;5009476;28;20056;-81
2021/09/06 03:01:10;;;;;;;11.77;8.20;;;;;;;23.44;37.73;101818.91;5023414;28;20050;-80
2021/09/06 03:03:37;;;;;;;14.75;8.63;;;;;;;23.41;37.51;101809.00;5017951;28;20051;-81
2021/09/06 03:06:04;;;;;;;11.65;8.02;;;;;;;23.38;37.29;101802.94;5011409;28;20052;-81
2021/09/06 03:08:30;;;;;;;12.40;8.27;;;;;;;23.37;37.88;101803.97;5009107;28;20107;-81
2021/09/06 03:10:57;;;;;;;13.00;8.60;;;;;;;23.34;37.55;101807.03;5017947;28;20116;-81
2021/09/06 03:13:23;;;;;;;12.30;8.27;;;;;;;23.32;37.88;101809.97;5011807;28;20409;-81
2021/09/06 03:15:50;;;;;;;13.90;7.95;;;;;;;23.31;37.96;101810.13;5016910;28;20129;-81
2021/09/06 03:18:17;;;;;;;11.13;7.90;;;;;;;23.29;37.94;101817.75;5009929;28;20115;-81
2021/09/06 03:20:43;;;;;;;11.05;7.93;;;;;;;23.27;37.82;101811.50;5010540;28;20122;-81
2021/09/06 03:23:10;;;;;;;11.68;8.32;;;;;;;23.26;37.94;101809.75;5018305;28;20504;-81
2021/09/06 03:25:36;;;;;;;11.85;8.45;;;;;;;23.25;37.94;101808.00;5011014;28;20703;-80
2021/09/06 03:28:03;;;;;;;12.43;7.90;;;;;;;23.22;37.87;101809.22;5007771;28;20069;-81
2021/09/06 03:30:29;;;;;;;11.48;7.93;;;;;;;23.21;37.72;101809.38;5011196;28;20133;-81
2021/09/06 03:32:56;;;;;;;13.05;8.13;;;;;;;23.19;37.44;101806.78;5008534;28;20078;-81
2021/09/06 03:35:23;;;;;;;12.63;8.38;;;;;;;23.18;38.15;101810.56;5017522;28;20532;-80
2021/09/06 03:37:49;;;;;;;13.00;9.00;;;;;;;23.17;38.23;101813.50;5009473;28;20154;-80
2021/09/06 03:40:16;;;;;;;12.27;8.35;;;;;;;23.14;37.98;101812.78;5014495;28;20050;-80
2021/09/06 03:42:43;;;;;;;12.75;8.38;;;;;;;23.11;37.95;101809.47;5010848;28;20053;-80
2021/09/06 03:45:09;;;;;;;12.07;7.75;;;;;;;23.09;37.80;101808.75;5030147;28;20049;-81
2021/09/06 03:47:36;;;;;;;11.57;8.15;;;;;;;23.06;37.89;101814.63;5016832;28;20054;-80
2021/09/06 03:50:04;;;;;;;12.00;7.65;;;;;;;23.03;38.10;101812.19;5014840;28;20112;-80
2021/09/06 03:52:30;;;;;;;12.48;7.97;;;;;;;23.00;38.09;101815.25;5010846;28;20388;-80
2021/09/06 03:54:57;;;;;;;13.13;8.02;;;;;;;22.97;38.19;101815.59;5015725;28;20083;-80
2021/09/06 03:57:24;;;;;;;12.02;8.15;;;;;;;22.95;38.39;101820.41;5014848;28;20081;-80
2021/09/06 03:59:50;;;;;;;12.48;7.72;;;;;;;22.93;38.25;101815.03;5013991;28;20484;-81
2021/09/06 04:02:17;;;;;;;10.93;7.30;;;;;;;22.92;38.12;101815.19;5009513;28;20046;-80
2021/09/06 04:04:44;;;;;;;11.10;7.80;;;;;;;22.90;38.42;101825.53;5014903;28;20050;-80
2021/09/06 04:07:10;;;;;;;12.45;8.13;;;;;;;22.89;38.08;101821.06;5007360;28;20493;-80
2021/09/06 04:09:37;;;;;;;12.45;8.18;;;;;;;22.87;38.46;101817.56;5009656;28;20490;-81
2021/09/06 04:12:04;;;;;;;11.45;8.23;;;;;;;22.87;38.46;101814.81;5016774;28;20081;-80
2021/09/06 04:14:33;;;;;;;11.00;7.78;;;;;;;22.85;38.04;101809.41;5008882;28;20058;-81
2021/09/06 04:16:59;;;;;;;13.13;8.63;;;;;;;22.83;38.36;101819.78;5006243;28;20104;-80
2021/09/06 04:19:30;;;;;;;12.90;8.23;;;;;;;22.83;38.44;101818.91;5022498;28;20560;-80
2021/09/06 04:21:58;;;;;;;11.43;8.35;;;;;;;22.81;38.15;101821.84;5020829;28;20092;-80
2021/09/06 04:24:26;;;;;;;12.23;8.23;;;;;;;22.79;38.68;101820.28;5011132;28;20074;-80
2021/09/06 04:26:53;;;;;;;10.40;7.57;;;;;;;22.77;38.70;101825.97;5007981;28;20133;-80
2021/09/06 04:29:20;;;;;;;11.73;8.15;;;;;;;22.74;38.11;101832.66;5008323;28;20072;-80
2021/09/06 04:31:48;;;;;;;12.85;8.45;;;;;;;22.73;38.18;101833.66;5009318;28;20081;-80
2021/09/06 04:34:15;;;;;;;11.45;7.57;;;;;;;22.73;38.63;101830.06;5027773;28;20054;-80
2021/09/06 04:36:42;;;;;;;11.05;7.82;;;;;;;22.72;38.21;101831.06;5020498;28;20104;-80
2021/09/06 04:39:09;;;;;;;11.95;7.97;;;;;;;22.70;38.66;101835.91;5008875;28;20058;-80
2021/09/06 04:41:35;;;;;;;11.63;7.78;;;;;;;22.69;38.31;101845.22;5012613;28;20092;-80
2021/09/06 04:44:02;;;;;;;11.50;7.75;;;;;;;22.68;38.26;101833.28;5016730;28;20077;-80
2021/09/06 04:46:29;;;;;;;11.20;7.70;;;;;;;22.67;38.78;101847.28;5009915;28;20124;-80
2021/09/06 04:48:55;;;;;;;12.18;8.00;;;;;;;22.65;38.38;101847.41;5013182;28;20049;-80
2021/09/06 04:51:22;;;;;;;12.35;8.35;;;;;;;22.64;38.59;101854.00;5007714;28;20081;-80
2021/09/06 04:53:48;;;;;;;10.90;7.97;;;;;;;22.63;38.32;101852.28;5014895;28;20133;-80
2021/09/06 04:56:15;;;;;;;12.52;8.00;;;;;;;22.62;38.64;101849.66;5007861;28;20085;-83
2021/09/06 04:58:42;;;;;;;10.95;7.95;;;;;;;22.61;38.55;101853.44;5011728;28;20092;-82
2021/09/06 05:01:08;;;;;;;13.32;8.38;;;;;;;22.59;38.54;101856.38;5013627;28;20409;-81
2021/09/06 05:03:36;;;;;;;11.43;7.57;;;;;;;22.58;38.40;101851.84;5005047;28;20378;-81
2021/09/06 05:06:02;;;;;;;12.50;8.23;;;;;;;22.57;38.68;101854.75;5008579;28;20350;-81
2021/09/06 05:08:29;;;;;;;10.98;7.57;;;;;;;22.57;38.59;101860.31;5014787;28;20124;-80
2021/09/06 05:10:56;;;;;;;12.05;8.20;;;;;;;22.56;38.54;101858.59;5014421;28;20077;-81
2021/09/06 05:13:24;;;;;;;13.20;8.18;;;;;;;22.56;38.78;101869.66;5036061;28;20055;-80
2021/09/06 05:15:51;;;;;;;11.32;7.57;;;;;;;22.53;38.81;101862.53;4998813;28;20050;-80
2021/09/06 05:18:18;;;;;;;11.70;8.10;;;;;;;22.52;38.32;101870.97;5018246;28;20076;-80
2021/09/06 05:20:45;;;;;;;12.70;8.55;;;;;;;22.51;38.86;101872.00;5018157;28;20081;-81
2021/09/06 05:23:11;;;;;;;12.90;8.70;;;;;;;22.49;38.76;101874.06;5017184;28;20062;-80
2021/09/06 05:25:38;;;;;;;10.73;7.40;;;;;;;22.46;38.98;101880.78;5009543;28;20471;-80
2021/09/06 05:28:05;;;;;;;12.18;7.53;;;;;;;22.44;38.84;101882.84;5012334;28;20104;-80
2021/09/06 05:30:32;;;;;;;11.65;8.57;;;;;;;22.43;38.95;101882.97;5020074;28;20053;-79
2021/09/06 05:33:00;;;;;;;12.27;8.07;;;;;;;22.42;39.23;101884.88;5016056;28;20053;-79
2021/09/06 05:35:27;;;;;;;12.63;8.18;;;;;;;22.42;38.75;101881.22;5027220;28;20050;-80
2021/09/06 05:37:53;;;;;;;11.32;8.02;;;;;;;22.40;39.42;101882.25;5013755;28;20058;-79
2021/09/06 05:40:20;;;;;;;11.27;8.02;;;;;;;22.40;39.06;101884.19;5016792;28;20057;-79
2021/09/06 05:42:46;;;;;;;12.95;8.48;;;;;;;22.39;39.36;101882.44;5017961;28;20305;-78
2021/09/06 05:45:13;;;;;;;11.48;8.27;;;;;;;22.39;38.82;101880.53;5009391;28;20046;-79
2021/09/06 05:47:39;;;;;;;13.07;8.40;;;;;;;22.39;39.30;101880.53;5000517;28;20049;-79
2021/09/06 05:50:06;;;;;;;12.27;8.13;;;;;;;22.38;39.37;101887.09;5012917;28;20073;-78
2021/09/06 05:52:33;;;;;;;11.85;8.07;;;;;;;22.38;38.81;101889.00;5011442;28;20104;-78
2021/09/06 05:54:59;;;;;;;12.18;8.68;;;;;;;22.40;39.50;101881.41;5010668;28;20481;-78
2021/09/06 05:57:26;;;;;;;12.80;8.18;;;;;;;22.41;39.42;101888.66;5021417;28;20104;-81
2021/09/06 05:59:53;;;;;;;12.77;9.13;;;;;;;22.41;39.45;101891.44;5011768;28;20153;-80
2021/09/06 06:02:19;;;;;;;12.93;8.50;;;;;;;22.41;39.24;101891.44;5010399;28;20061;-80
2021/09/06 06:04:46;;;;;;;13.57;8.40;;;;;;;22.40;39.33;101898.03;5014153;28;20058;-80
2021/09/06 06:07:13;;;;;;;13.57;8.73;;;;;;;22.40;39.42;101890.56;5009400;28;20152;-76
2021/09/06 06:09:42;;;;;;;12.30;8.73;;;;;;;22.44;39.29;101893.91;5009099;28;20049;-78
2021/09/06 06:12:12;;;;;;;13.40;8.98;;;;;;;22.45;39.30;101897.53;5007437;28;20042;-80
2021/09/06 06:14:38;;;;;;;13.48;8.63;;;;;;;22.42;39.75;101907.00;5008015;28;20464;-77
2021/09/06 06:17:08;;;;;;;11.85;8.65;;;;;;;22.47;40.00;101903.81;5007692;28;20046;-78
2021/09/06 06:19:35;;;;;;;15.77;9.40;;;;;;;22.44;40.07;101904.09;5008244;28;20148;-78
2021/09/06 06:22:02;;;;;;;15.60;9.90;;;;;;;22.45;40.28;101895.66;5014257;28;20108;-76
2021/09/06 06:24:28;;;;;;;13.80;9.45;;;;;;;22.44;40.22;101902.19;5006272;28;20464;-79
2021/09/06 06:26:55;;;;;;;14.18;9.23;;;;;;;22.45;39.88;101897.53;5001892;28;20046;-78
2021/09/06 06:29:21;;;;;;;13.02;8.77;;;;;;;22.44;39.91;101902.19;5019409;28;20053;-78
2021/09/06 06:31:48;;;;;;;13.55;9.02;;;;;;;22.46;39.85;101902.06;5014709;28;20441;-77
2021/09/06 06:34:14;;;;;;;14.45;9.68;;;;;;;22.45;40.57;101897.53;5016477;28;20053;-78
2021/09/06 06:36:41;;;;;;;14.25;9.57;;;;;;;22.46;40.67;101900.16;5014848;28;20076;-77
2021/09/06 06:39:10;;;;;;;14.05;9.35;;;;;;;22.49;40.90;101910.03;5013989;28;20081;-78
2021/09/06 06:41:37;;;;;;;13.45;8.50;;;;;;;22.50;40.47;101909.88;5012612;28;20104;-80
2021/09/06 06:44:04;;;;;;;15.45;9.27;;;;;;;22.53;40.37;101905.94;5011832;28;20062;-77
2021/09/06 06:46:31;;;;;;;14.15;8.95;;;;;;;22.55;40.77;101909.44;5017996;28;20076;-78
2021/09/06 06:49:00;;;;;;;13.23;8.88;;;;;;;22.62;40.87;101916.09;5012836;28;20124;-81
2021/09/06 06:51:27;;;;;;;15.10;9.38;;;;;;;22.61;40.62;101912.44;5007327;28;20152;-80
2021/09/06 06:53:54;;;;;;;12.30;8.73;;;;;;;22.66;40.50;101920.28;5011065;28;20049;-78
2021/09/06 06:56:20;;;;;;;14.25;9.10;;;;;;;22.70;41.48;101918.94;5014754;28;20053;-78
2021/09/06 06:58:47;;;;;;;14.52;9.65;;;;;;;22.79;42.02;101923.59;5004338;28;20728;-76
2021/09/06 07:01:13;;;;;;;15.25;10.15;;;;;;;22.89;41.86;101926.31;5011974;28;20073;-77
2021/09/06 07:03:40;;;;;;;14.77;10.05;;;;;;;23.00;42.41;101928.81;5004185;28;20046;-79
2021/09/06 07:06:09;;;;;;;16.20;9.95;;;;;;;23.17;42.83;101932.63;5011019;28;20049;-79
2021/09/06 07:08:35;;;;;;;13.82;9.88;;;;;;;23.30;43.13;101931.22;5010421;28;20440;-77
2021/09/06 07:11:02;;;;;;;15.55;10.25;;;;;;;23.49;43.13;101938.50;5013128;28;20050;-78
2021/09/06 07:13:29;;;;;;;14.45;10.25;;;;;;;23.69;43.17;101942.84;5015841;28;20049;-80
2021/09/06 07:15:56;;;;;;;14.13;10.07;;;;;;;23.90;43.16;101951.66;5010758;28;20500;-78
2021/09/06 07:18:25;;;;;;;17.02;10.30;;;;;;;24.09;42.72;101941.38;5012255;28;20133;-73
2021/09/06 07:20:52;;;;;;;13.60;9.75;;;;;;;24.27;42.56;101948.63;5012864;28;20123;-73
2021/09/06 07:23:18;;;;;;;13.85;10.20;;;;;;;24.44;41.87;101949.59;4995849;28;20148;-73
2021/09/06 07:25:45;;;;;;;13.85;10.20;;;;;;;24.59;41.44;101953.47;5010549;28;20129;-72
2021/09/06 07:28:12;;;;;;;16.40;10.55;;;;;;;24.72;40.87;101949.34;5010927;28;20112;-74
2021/09/06 07:30:39;;;;;;;13.20;9.88;;;;;;;24.82;40.81;101950.94;5012244;28;20046;-73
2021/09/06 07:33:06;;;;;;;14.60;10.68;;;;;;;24.91;40.42;101955.53;5009240;28;20058;-74
2021/09/06 07:35:34;;;;;;;14.50;10.45;;;;;;;24.97;40.28;101965.09;5012336;28;20107;-74
2021/09/06 07:38:00;;;;;;;15.68;10.45;;;;;;;25.02;40.13;101959.91;5013845;28;20107;-75
2021/09/06 07:40:27;;;;;;;14.85;10.48;;;;;;;25.07;40.27;101965.81;5014360;28;20045;-75
2021/09/06 07:42:54;;;;;;;15.63;10.60;;;;;;;25.12;39.82;101965.31;5007853;28;20077;-73
2021/09/06 07:45:20;;;;;;;15.88;10.43;;;;;;;25.14;40.13;101966.88;5012144;28;20053;-72
2021/09/06 07:47:47;;;;;;;13.60;9.20;;;;;;;25.17;39.92;101966.53;5006319;28;20053;-72
2021/09/06 07:50:16;;;;;;;15.48;10.25;;;;;;;25.18;39.80;101968.28;5007323;28;20058;-72
2021/09/06 07:52:42;;;;;;;17.17;10.85;;;;;;;25.21;40.05;101967.03;5006652;28;20510;-74
2021/09/06 07:55:10;;;;;;;15.50;10.40;;;;;;;25.23;39.83;101974.19;5011660;28;20088;-73
2021/09/06 07:57:36;;;;;;;15.82;10.38;;;;;;;25.24;39.91;101972.28;5002908;28;20472;-74
2021/09/06 08:00:05;;;;;;;13.52;9.55;;;;;;;25.25;39.88;101971.22;5013803;28;20065;-75
2021/09/06 08:02:39;;;;;;;15.13;9.82;;;;;;;25.29;39.30;101976.25;5001151;28;20133;-72
2021/09/06 08:05:07;;;;;;;13.13;9.90;;;;;;;25.26;40.01;101982.19;5017386;28;20077;-73
2021/09/06 08:07:34;;;;;;;13.27;9.73;;;;;;;25.28;39.66;101982.03;5011030;28;20088;-73
2021/09/06 08:10:01;;;;;;;15.90;10.57;;;;;;;25.29;39.90;101987.38;5008909;28;20132;-73
2021/09/06 08:12:28;;;;;;;14.77;10.35;;;;;;;25.33;39.83;101990.72;5014139;28;20052;-73
2021/09/06 08:14:55;;;;;;;14.77;10.30;;;;;;;25.35;39.63;101992.28;5007455;28;20053;-72
2021/09/06 08:17:22;;;;;;;13.30;9.68;;;;;;;25.38;39.84;101991.91;5008561;28;20497;-72
2021/09/06 08:19:50;;;;;;;13.63;9.50;;;;;;;25.40;39.76;101998.19;5019754;28;20045;-71
2021/09/06 08:22:16;;;;;;;14.25;10.45;;;;;;;25.42;39.72;101994.38;5014571;28;20076;-72
2021/09/06 08:24:44;;;;;;;14.38;10.68;;;;;;;25.46;39.47;101995.75;5008327;28;20070;-72
2021/09/06 08:27:11;;;;;;;14.43;9.70;;;;;;;25.47;39.56;101991.94;5010850;28;20115;-74
2021/09/06 08:29:38;;;;;;;14.07;10.63;;;;;;;25.50;39.73;101999.94;5009307;28;20049;-72
2021/09/06 08:32:05;;;;;;;13.73;10.32;;;;;;;25.53;39.64;102002.38;5014055;28;20137;-73
2021/09/06 08:34:32;;;;;;;15.65;9.98;;;;;;;25.55;39.67;102006.72;5011931;28;20445;-72
2021/09/06 08:36:59;;;;;;;13.20;9.43;;;;;;;25.59;39.85;102004.50;5007818;28;20181;-72
2021/09/06 08:39:26;;;;;;;13.27;9.30;;;;;;;25.61;39.73;102005.22;5005906;28;20046;-72
2021/09/06 08:41:53;;;;;;;14.50;9.60;;;;;;;25.65;39.75;102007.47;5007931;28;20551;-72
2021/09/06 08:44:24;;;;;;;14.43;10.00;;;;;;;25.74;39.49;102000.88;5021797;28;20143;-72
2021/09/06 08:46:53;;;;;;;14.52;10.00;;;;;;;25.76;39.69;102004.34;5012224;28;20082;-72
2021/09/06 08:49:21;;;;;;;13.93;9.98;;;;;;;25.81;39.47;102000.16;5007482;28;20136;-72
2021/09/06 08:51:48;;;;;;;13.73;9.38;;;;;;;25.85;39.77;102002.44;5006778;28;20046;-72
2021/09/06 08:54:18;;;;;;;11.98;9.30;;;;;;;25.94;39.36;102006.09;5006504;28;20050;-71
2021/09/06 08:56:47;;;;;;;12.35;9.00;;;;;;;25.99;39.45;102010.06;5005872;28;20049;-73
2021/09/06 08:59:17;;;;;;;13.50;9.63;;;;;;;26.05;38.88;102006.56;5007351;28;20093;-72
2021/09/06 09:01:48;;;;;;;12.40;9.32;;;;;;;26.09;38.90;102005.19;5004872;28;20053;-71
2021/09/06 09:04:26;;;;;;;12.52;9.27;;;;;;;26.18;38.90;102007.97;5007402;28;20554;-70
2021/09/06 09:06:58;;;;;;;13.43;8.98;;;;;;;26.23;39.35;102006.38;5016647;28;20081;-71
2021/09/06 09:09:35;;;;;;;12.63;8.18;;;;;;;26.33;39.31;102009.00;5018993;28;20045;-72
2021/09/06 09:12:12;;;;;;;12.02;8.93;;;;;;;26.41;39.23;102004.28;5011853;28;20393;-72
2021/09/06 09:15:06;;;;;;;11.18;8.18;;;;;;;26.51;38.43;102013.31;5009855;28;20042;-72
2021/09/06 09:17:34;;;;;;;12.45;9.45;;;;;;;26.56;38.49;102000.75;5017771;28;20058;-71
2021/09/06 09:20:05;;;;;;;13.20;9.57;;;;;;;26.68;37.96;102007.69;5011236;28;20121;-72
2021/09/06 09:22:37;;;;;;;13.75;8.95;;;;;;;26.74;37.98;102007.84;5016048;28;20317;-72
2021/09/06 09:25:07;;;;;;;13.10;8.95;;;;;;;26.81;37.46;102014.41;5005548;28;20041;-71
2021/09/06 09:27:44;;;;;;;11.83;9.03;;;;;;;26.89;37.39;102013.50;5008993;28;20045;-71
2021/09/06 09:30:22;;;;;;;11.38;8.45;;;;;;;27.00;37.14;102015.06;5011101;28;20284;-72
2021/09/06 09:33:08;;;;;;;11.10;8.30;;;;;;;27.07;37.64;102014.16;5010609;28;20069;-71
2021/09/06 09:35:36;;;;;;;12.82;9.15;;;;;;;27.15;37.82;102007.66;5011268;28;20485;-70
2021/09/06 09:38:08;;;;;;;13.30;9.07;;;;;;;27.29;37.53;102006.88;5017775;28;20564;-72
2021/09/06 09:40:37;;;;;;;14.33;9.13;;;;;;;27.37;37.55;102008.75;5004906;28;20100;-71
2021/09/06 09:43:04;;;;;;;13.85;8.93;;;;;;;27.46;37.37;102016.00;5023809;28;20448;-70
2021/09/06 09:45:31;;;;;;;11.73;8.40;;;;;;;27.56;37.23;102011.09;5010953;28;20551;-71
2021/09/06 09:48:00;;;;;;;14.15;8.82;;;;;;;27.68;37.11;102011.50;5003349;28;20152;-70
2021/09/06 09:50:29;;;;;;;13.15;9.18;;;;;;;27.77;36.86;102019.63;5010325;28;20104;-71
2021/09/06 09:52:56;;;;;;;14.15;8.63;;;;;;;27.84;36.77;102016.94;5008097;28;20050;-71
2021/09/06 09:55:25;;;;;;;11.25;8.23;;;;;;;27.95;36.62;102009.00;5003941;28;20613;-70
2021/09/06 09:57:52;;;;;;;12.40;8.35;;;;;;;28.05;36.63;102007.88;5008851;28;20133;-69
2021/09/06 10:00:19;;;;;;;12.15;8.18;;;;;;;28.14;36.18;102001.16;5010641;28;20485;-69
2021/09/06 10:02:55;;;;;;;11.73;8.70;;;;;;;28.28;35.26;102005.94;5007301;28;20057;-71
2021/09/06 10:05:28;;;;;;;12.15;8.77;;;;;;;28.38;34.40;102006.53;5008646;28;20053;-70
2021/09/06 10:07:55;;;;;;;12.60;9.05;;;;;;;28.44;35.20;101999.28;4995379;28;20077;-70
2021/09/06 10:10:24;;;;;;;12.57;9.48;;;;;;;28.53;35.32;101996.22;5007171;28;20053;-70
2021/09/06 10:13:12;;;;;;;13.13;9.10;;;;;;;28.59;34.82;101997.38;5010476;28;20519;-70
2021/09/06 10:15:41;;;;;;;14.18;9.90;;;;;;;28.67;34.95;101997.25;5026700;28;20521;-69
2021/09/06 10:18:18;;;;;;;12.10;8.82;;;;;;;28.76;34.52;101999.81;5005189;28;20057;-70
2021/09/06 10:20:50;;;;;;;11.63;8.25;;;;;;;28.83;34.30;101999.00;5007474;28;20080;-70
2021/09/06 10:23:16;;;;;;;11.80;8.77;;;;;;;28.88;34.55;102000.19;5001583;28;20505;-69
2021/09/06 10:25:44;;;;;;;12.57;8.77;;;;;;;28.98;34.09;101995.16;5011417;28;20045;-69
2021/09/06 10:28:13;;;;;;;11.65;9.35;;;;;;;29.06;34.15;101997.84;5010483;28;20112;-69
2021/09/06 10:30:53;;;;;;;11.90;9.65;;;;;;;29.14;33.30;101999.66;4999114;28;20132;-70
2021/09/06 10:33:31;;;;;;;12.20;8.90;;;;;;;29.23;33.13;101992.03;5009663;28;20458;-69
2021/09/06 10:36:11;;;;;;;13.38;8.77;;;;;;;29.30;32.91;101990.16;5025064;28;20052;-70
2021/09/06 10:38:47;;;;;;;10.45;7.97;;;;;;;29.36;32.40;101984.66;5006338;28;20124;-70
2021/09/06 10:41:18;;;;;;;11.20;8.43;;;;;;;29.42;33.34;101988.59;5010094;28;20053;-70
2021/09/06 10:43:52;;;;;;;12.85;9.00;;;;;;;29.49;32.78;101982.00;5004866;28;20054;-70
2021/09/06 10:46:26;;;;;;;11.70;8.95;;;;;;;29.57;32.50;101985.75;5010254;28;20053;-70
2021/09/06 10:48:54;;;;;;;11.93;8.90;;;;;;;29.62;33.13;101983.22;5007535;28;20145;-71
2021/09/06 10:51:29;;;;;;;12.38;9.02;;;;;;;29.69;32.12;101971.00;5012333;28;20476;-74
2021/09/06 10:53:59;;;;;;;10.27;8.20;;;;;;;29.73;32.36;101972.31;5006200;28;20068;-70
2021/09/06 10:56:30;;;;;;;13.70;9.23;;;;;;;29.79;31.75;101970.66;5011935;28;20083;-71
2021/09/06 10:58:57;;;;;;;11.55;8.68;;;;;;;29.78;32.31;101971.72;5017000;28;20057;-71
2021/09/06 11:01:25;;;;;;;10.50;7.80;;;;;;;29.85;32.33;101978.25;5016596;28;20100;-69
2021/09/06 11:03:53;;;;;;;10.98;7.85;;;;;;;29.90;32.22;101979.38;5012529;28;20519;-70
2021/09/06 11:06:23;;;;;;;9.75;7.90;;;;;;;29.96;32.02;101974.94;5017300;28;20477;-69
2021/09/06 11:08:50;;;;;;;9.95;7.07;;;;;;;30.00;32.02;101976.25;5005154;28;20438;-70
2021/09/06 11:11:16;;;;;;;9.50;7.35;;;;;;;30.04;31.39;101977.59;5012291;28;20081;-70
2021/09/06 11:13:45;;;;;;;9.57;7.55;;;;;;;30.11;30.90;101978.50;5014511;28;20076;-69
2021/09/06 11:16:14;;;;;;;9.68;6.85;;;;;;;30.15;31.22;101979.81;5014321;28;20160;-70
2021/09/06 11:18:43;;;;;;;9.82;6.88;;;;;;;30.20;30.70;101982.03;5006014;28;20054;-69